Livingston, KY (40445)

2:23 PM EDT on September 21, 2014 (GMT -0400)
Denny Subdivision | Change Station
CLOSE
Current Station
Personal Weather Station
Location: Mount Vernon, KY
Elevation: 1181 ft
Nearby Weather Stations

Elev 1181 ft 37.31 °N, 84.39 °W | Updated 9 seconds ago

Overcast
Overcast
75.6 °F
Feels Like 76 °F
N
9.6
Wind Variable Wind from West
Gusts 16.0 mph

Today
High -- | Low -- °F
--% Chance of Precip.
Yesterday
High -- | Low -- °F
Precip. -- in
7:23 AM 7:35 PM
Waning Crescent, 6% visible
Pressure 29.91 in
Visibility 10.0 miles
Clouds Scattered Clouds 2000 ft
Mostly Cloudy 2500 ft
Overcast 3800 ft
Heat Index 76 °F
Dew Point 69 °F
Humidity 81%
Rainfall 0.05 in
Snow Depth Not available.
UV 3 out of 12
Pollen 4.90 out of 12
Air Quality Not available.
Flu Activity Not available.
METAR KLOZ 211753Z AUTO 26007KT 10SM SCT020 BKN025 OVC038 24/19 A2994 RMK AO2 SLP126 60000 T02390189 10244 20200 56014 $

More Conditions Fewer Conditions

Pressure 29.91 in
Visibility 10.0 miles
Clouds Scattered Clouds 2000 ft
Mostly Cloudy 2500 ft
Overcast 3800 ft
Heat Index 76 °F
Dew Point 69 °F
Humidity 81%
Rainfall 0.05 in
Snow Depth Not available.
UV 3 out of 12
Pollen 4.90 out of 12
Air Quality Not available.
Flu Activity Not available.
METAR KLOZ 211753Z AUTO 26007KT 10SM SCT020 BKN025 OVC038 24/19 A2994 RMK AO2 SLP126 60000 T02390189 10244 20200 56014 $

More Conditions Fewer Conditions

10-Day Weather Forecast

Almanac

Astronomy

Sep. 21, 2014 Rise Set
Actual Time 7:23 AM EDT 7:35 PM EDT
Civil Twilight 6:57 AM EDT 8:01 PM EDT
Nautical Twilight 6:27 AM EDT 8:31 PM EDT
Astronomical Twilight 5:56 AM EDT 9:02 PM EDT
Moon 4:59 AM EDT 6:09 PM EDT
Length of Visible Light 13h 03m
Length of Day
12h 11m
Tomorrow will be 2m 23s shorter.
Waning Crescent, 6% of the Moon is Illuminated
Today
Waning Crescent
Sep 24
New
Oct 1
First Quarter
Oct 8
Full
Oct 15
Last Quarter

Today's Extremes

State Highs State Lows

Community

WunderPhotos

Upload Photos

1,755,212 photos uploaded!

WunderBlogs® & News

Nearby

Snow Depth

Station Depth Elevation
No new snow has been reported.

Earthquake Activity

City Distance Mag. Time & Date
Sweetwater, Tennessee 115 miles 2.5 3:54 PM EDT
2014-09-20
Minimum magnitude displayed is 2.5.

Coastal Water Temperatures

Place Temperature
No Stations Reporting

Nearby Weather Stations